sensor_id;sensor_type;location;lat;lon;timestamp;P1;durP1;ratioP1;P2;durP2;ratioP2
36441;SDS011;64346;50.820;16.274;2023-07-28T00:00:03;7.18;;;3.00;;
36441;SDS011;64346;50.820;16.274;2023-07-28T00:02:31;6.50;;;3.25;;
36441;SDS011;64346;50.820;16.274;2023-07-28T00:04:58;7.43;;;3.50;;
36441;SDS011;64346;50.820;16.274;2023-07-28T00:07:26;6.85;;;3.40;;
36441;SDS011;64346;50.820;16.274;2023-07-28T00:09:53;7.43;;;3.40;;
36441;SDS011;64346;50.820;16.274;2023-07-28T00:12:20;5.57;;;3.40;;
36441;SDS011;64346;50.820;16.274;2023-07-28T00:14:50;5.70;;;3.20;;
36441;SDS011;64346;50.820;16.274;2023-07-28T00:17:17;4.38;;;2.83;;
36441;SDS011;64346;50.820;16.274;2023-07-28T00:19:44;5.20;;;3.25;;
36441;SDS011;64346;50.820;16.274;2023-07-28T00:22:12;4.90;;;2.75;;
36441;SDS011;64346;50.820;16.274;2023-07-28T00:24:39;6.85;;;3.90;;
36441;SDS011;64346;50.820;16.274;2023-07-28T00:27:06;5.75;;;3.42;;
36441;SDS011;64346;50.820;16.274;2023-07-28T00:29:33;7.55;;;3.90;;
36441;SDS011;64346;50.820;16.274;2023-07-28T00:32:01;5.97;;;3.50;;
36441;SDS011;64346;50.820;16.274;2023-07-28T00:34:28;6.97;;;3.53;;
36441;SDS011;64346;50.820;16.274;2023-07-28T00:36:58;6.82;;;3.50;;
36441;SDS011;64346;50.820;16.274;2023-07-28T00:39:25;5.80;;;3.35;;
36441;SDS011;64346;50.820;16.274;2023-07-28T00:41:55;5.93;;;3.33;;
36441;SDS011;64346;50.820;16.274;2023-07-28T00:44:22;5.28;;;3.20;;
36441;SDS011;64346;50.820;16.274;2023-07-28T00:46:52;4.97;;;3.15;;
36441;SDS011;64346;50.820;16.274;2023-07-28T00:49:19;4.20;;;3.17;;
36441;SDS011;64346;50.820;16.274;2023-07-28T00:51:46;4.63;;;2.90;;
36441;SDS011;64346;50.820;16.274;2023-07-28T00:54:15;4.50;;;2.72;;
36441;SDS011;64346;50.820;16.274;2023-07-28T00:56:43;5.05;;;2.72;;
36441;SDS011;64346;50.820;16.274;2023-07-28T00:59:11;4.35;;;2.72;;
36441;SDS011;64346;50.820;16.274;2023-07-28T01:01:38;5.95;;;3.38;;
36441;SDS011;64346;50.820;16.274;2023-07-28T01:04:05;5.88;;;3.25;;
36441;SDS011;64346;50.820;16.274;2023-07-28T01:06:37;5.22;;;3.13;;
36441;SDS011;64346;50.820;16.274;2023-07-28T01:09:18;3.88;;;2.58;;
36441;SDS011;64346;50.820;16.274;2023-07-28T01:11:52;5.05;;;2.90;;
36441;SDS011;64346;50.820;16.274;2023-07-28T01:14:20;4.00;;;2.80;;
36441;SDS011;64346;50.820;16.274;2023-07-28T01:16:48;5.35;;;3.03;;
36441;SDS011;64346;50.820;16.274;2023-07-28T01:19:18;5.45;;;3.22;;
36441;SDS011;64346;50.820;16.274;2023-07-28T01:21:48;4.68;;;3.30;;
36441;SDS011;64346;50.820;16.274;2023-07-28T01:27:13;4.70;;;2.92;;
36441;SDS011;64346;50.820;16.274;2023-07-28T01:29:41;5.55;;;3.20;;
36441;SDS011;64346;50.820;16.274;2023-07-28T01:32:10;4.40;;;2.75;;
36441;SDS011;64346;50.820;16.274;2023-07-28T01:34:38;4.50;;;3.13;;
36441;SDS011;64346;50.820;16.274;2023-07-28T01:37:08;3.03;;;2.40;;
36441;SDS011;64346;50.820;16.274;2023-07-28T01:39:37;3.05;;;2.38;;
36441;SDS011;64346;50.820;16.274;2023-07-28T01:42:07;3.90;;;2.40;;
36441;SDS011;64346;50.820;16.274;2023-07-28T01:44:36;3.72;;;2.50;;
36441;SDS011;64346;50.820;16.274;2023-07-28T01:47:03;4.85;;;2.55;;
36441;SDS011;64346;50.820;16.274;2023-07-28T01:49:31;3.15;;;2.25;;
36441;SDS011;64346;50.820;16.274;2023-07-28T01:51:58;2.55;;;1.95;;
36441;SDS011;64346;50.820;16.274;2023-07-28T01:54:27;3.05;;;2.20;;
36441;SDS011;64346;50.820;16.274;2023-07-28T01:56:55;2.45;;;1.95;;
36441;SDS011;64346;50.820;16.274;2023-07-28T01:59:22;2.25;;;1.80;;
36441;SDS011;64346;50.820;16.274;2023-07-28T02:01:51;4.05;;;1.75;;
36441;SDS011;64346;50.820;16.274;2023-07-28T02:04:18;1.52;;;1.38;;
36441;SDS011;64346;50.820;16.274;2023-07-28T02:06:46;2.78;;;1.85;;
36441;SDS011;64346;50.820;16.274;2023-07-28T02:09:13;2.40;;;1.67;;
36441;SDS011;64346;50.820;16.274;2023-07-28T02:11:40;2.25;;;1.40;;
36441;SDS011;64346;50.820;16.274;2023-07-28T02:14:07;1.90;;;1.33;;
36441;SDS011;64346;50.820;16.274;2023-07-28T02:16:35;1.67;;;1.48;;
36441;SDS011;64346;50.820;16.274;2023-07-28T02:19:04;1.30;;;1.20;;
36441;SDS011;64346;50.820;16.274;2023-07-28T02:21:32;2.15;;;1.30;;
36441;SDS011;64346;50.820;16.274;2023-07-28T02:23:59;2.58;;;1.30;;
36441;SDS011;64346;50.820;16.274;2023-07-28T02:26:27;2.78;;;1.50;;
36441;SDS011;64346;50.820;16.274;2023-07-28T02:28:54;1.45;;;1.35;;
36441;SDS011;64346;50.820;16.274;2023-07-28T02:31:21;2.80;;;1.77;;
36441;SDS011;64346;50.820;16.274;2023-07-28T02:33:49;2.15;;;1.55;;
36441;SDS011;64346;50.820;16.274;2023-07-28T02:36:19;2.25;;;1.48;;
36441;SDS011;64346;50.820;16.274;2023-07-28T02:38:46;1.90;;;1.63;;
36441;SDS011;64346;50.820;16.274;2023-07-28T02:41:13;1.67;;;1.58;;
36441;SDS011;64346;50.820;16.274;2023-07-28T02:43:40;1.63;;;1.42;;
36441;SDS011;64346;50.820;16.274;2023-07-28T02:46:08;1.42;;;1.33;;
36441;SDS011;64346;50.820;16.274;2023-07-28T02:48:35;1.50;;;1.40;;
36441;SDS011;64346;50.820;16.274;2023-07-28T02:51:02;1.90;;;1.10;;
36441;SDS011;64346;50.820;16.274;2023-07-28T02:53:30;3.63;;;1.20;;
36441;SDS011;64346;50.820;16.274;2023-07-28T02:55:57;1.33;;;1.23;;
36441;SDS011;64346;50.820;16.274;2023-07-28T02:58:24;1.58;;;1.00;;
36441;SDS011;64346;50.820;16.274;2023-07-28T03:00:51;2.95;;;1.80;;
36441;SDS011;64346;50.820;16.274;2023-07-28T03:03:19;1.88;;;1.30;;
36441;SDS011;64346;50.820;16.274;2023-07-28T03:05:47;3.22;;;1.48;;
36441;SDS011;64346;50.820;16.274;2023-07-28T03:08:18;1.17;;;0.90;;
36441;SDS011;64346;50.820;16.274;2023-07-28T03:10:48;1.25;;;1.15;;
36441;SDS011;64346;50.820;16.274;2023-07-28T03:13:15;1.63;;;1.30;;
36441;SDS011;64346;50.820;16.274;2023-07-28T03:15:42;1.20;;;1.10;;
36441;SDS011;64346;50.820;16.274;2023-07-28T03:18:09;1.52;;;1.10;;
36441;SDS011;64346;50.820;16.274;2023-07-28T03:20:39;1.33;;;1.20;;
36441;SDS011;64346;50.820;16.274;2023-07-28T03:23:06;5.18;;;2.50;;
36441;SDS011;64346;50.820;16.274;2023-07-28T03:25:34;1.13;;;1.02;;
36441;SDS011;64346;50.820;16.274;2023-07-28T03:28:01;1.48;;;1.05;;
36441;SDS011;64346;50.820;16.274;2023-07-28T03:30:28;1.15;;;1.05;;
36441;SDS011;64346;50.820;16.274;2023-07-28T03:32:55;1.13;;;1.02;;
36441;SDS011;64346;50.820;16.274;2023-07-28T03:35:23;1.10;;;0.70;;
36441;SDS011;64346;50.820;16.274;2023-07-28T03:37:50;0.98;;;0.90;;
36441;SDS011;64346;50.820;16.274;2023-07-28T03:40:20;1.20;;;1.15;;
36441;SDS011;64346;50.820;16.274;2023-07-28T03:42:47;3.50;;;0.98;;
36441;SDS011;64346;50.820;16.274;2023-07-28T03:45:17;1.38;;;0.70;;
36441;SDS011;64346;50.820;16.274;2023-07-28T03:47:44;1.85;;;0.90;;
36441;SDS011;64346;50.820;16.274;2023-07-28T03:50:14;0.60;;;0.60;;
36441;SDS011;64346;50.820;16.274;2023-07-28T03:52:41;1.55;;;0.70;;
36441;SDS011;64346;50.820;16.274;2023-07-28T03:55:09;0.60;;;0.60;;
36441;SDS011;64346;50.820;16.274;2023-07-28T03:57:41;0.73;;;0.50;;
36441;SDS011;64346;50.820;16.274;2023-07-28T04:00:08;0.50;;;0.50;;
36441;SDS011;64346;50.820;16.274;2023-07-28T04:02:36;1.10;;;0.50;;
36441;SDS011;64346;50.820;16.274;2023-07-28T04:05:06;0.95;;;0.45;;
36441;SDS011;64346;50.820;16.274;2023-07-28T04:07:33;0.55;;;0.30;;
36441;SDS011;64346;50.820;16.274;2023-07-28T04:10:01;0.43;;;0.43;;
36441;SDS011;64346;50.820;16.274;2023-07-28T04:12:31;0.40;;;0.40;;
36441;SDS011;64346;50.820;16.274;2023-07-28T04:15:03;0.47;;;0.47;;
36441;SDS011;64346;50.820;16.274;2023-07-28T04:17:30;1.13;;;0.50;;
36441;SDS011;64346;50.820;16.274;2023-07-28T04:19:58;0.32;;;0.32;;
36441;SDS011;64346;50.820;16.274;2023-07-28T04:22:25;0.73;;;0.40;;
36441;SDS011;64346;50.820;16.274;2023-07-28T04:24:52;0.43;;;0.43;;
36441;SDS011;64346;50.820;16.274;2023-07-28T04:27:19;0.80;;;0.38;;
36441;SDS011;64346;50.820;16.274;2023-07-28T04:29:47;0.50;;;0.50;;
36441;SDS011;64346;50.820;16.274;2023-07-28T04:32:14;1.77;;;0.80;;
36441;SDS011;64346;50.820;16.274;2023-07-28T04:34:43;0.77;;;0.60;;
36441;SDS011;64346;50.820;16.274;2023-07-28T04:37:11;0.40;;;0.40;;
36441;SDS011;64346;50.820;16.274;2023-07-28T04:39:38;0.40;;;0.40;;
36441;SDS011;64346;50.820;16.274;2023-07-28T04:42:08;0.40;;;0.40;;
36441;SDS011;64346;50.820;16.274;2023-07-28T04:44:37;0.55;;;0.55;;
36441;SDS011;64346;50.820;16.274;2023-07-28T04:47:04;0.80;;;0.80;;
36441;SDS011;64346;50.820;16.274;2023-07-28T04:49:32;0.98;;;0.70;;
36441;SDS011;64346;50.820;16.274;2023-07-28T04:52:01;1.40;;;0.70;;
36441;SDS011;64346;50.820;16.274;2023-07-28T04:54:29;0.40;;;0.40;;
36441;SDS011;64346;50.820;16.274;2023-07-28T04:56:56;1.02;;;0.57;;
36441;SDS011;64346;50.820;16.274;2023-07-28T04:59:23;1.30;;;0.60;;
36441;SDS011;64346;50.820;16.274;2023-07-28T05:01:50;0.40;;;0.40;;
36441;SDS011;64346;50.820;16.274;2023-07-28T05:04:18;0.50;;;0.50;;
36441;SDS011;64346;50.820;16.274;2023-07-28T05:06:45;1.85;;;0.50;;
36441;SDS011;64346;50.820;16.274;2023-07-28T05:09:13;2.95;;;0.98;;
36441;SDS011;64346;50.820;16.274;2023-07-28T05:11:40;0.63;;;0.63;;
36441;SDS011;64346;50.820;16.274;2023-07-28T05:14:07;2.10;;;1.05;;
36441;SDS011;64346;50.820;16.274;2023-07-28T05:16:34;0.40;;;0.40;;
36441;SDS011;64346;50.820;16.274;2023-07-28T05:19:03;1.13;;;0.60;;
36441;SDS011;64346;50.820;16.274;2023-07-28T05:21:35;0.63;;;0.60;;
36441;SDS011;64346;50.820;16.274;2023-07-28T05:24:03;0.60;;;0.60;;
36441;SDS011;64346;50.820;16.274;2023-07-28T05:26:30;4.43;;;2.25;;
36441;SDS011;64346;50.820;16.274;2023-07-28T05:29:00;3.38;;;1.55;;
36441;SDS011;64346;50.820;16.274;2023-07-28T05:31:27;1.67;;;1.25;;
36441;SDS011;64346;50.820;16.274;2023-07-28T05:33:57;2.05;;;0.70;;
36441;SDS011;64346;50.820;16.274;2023-07-28T05:36:27;1.48;;;0.90;;
36441;SDS011;64346;50.820;16.274;2023-07-28T05:38:54;0.73;;;0.63;;
36441;SDS011;64346;50.820;16.274;2023-07-28T05:41:22;0.57;;;0.50;;
36441;SDS011;64346;50.820;16.274;2023-07-28T05:43:52;0.57;;;0.47;;
36441;SDS011;64346;50.820;16.274;2023-07-28T05:46:19;1.00;;;0.90;;
36441;SDS011;64346;50.820;16.274;2023-07-28T05:48:47;2.40;;;1.40;;
36441;SDS011;64346;50.820;16.274;2023-07-28T05:51:14;1.67;;;0.60;;
36441;SDS011;64346;50.820;16.274;2023-07-28T05:53:45;0.70;;;0.70;;
36441;SDS011;64346;50.820;16.274;2023-07-28T05:56:12;3.00;;;1.80;;
36441;SDS011;64346;50.820;16.274;2023-07-28T05:58:39;2.05;;;0.63;;
36441;SDS011;64346;50.820;16.274;2023-07-28T06:01:06;1.77;;;0.43;;
36441;SDS011;64346;50.820;16.274;2023-07-28T06:03:36;0.90;;;0.70;;
36441;SDS011;64346;50.820;16.274;2023-07-28T06:06:03;0.40;;;0.40;;
36441;SDS011;64346;50.820;16.274;2023-07-28T06:08:31;0.60;;;0.45;;
36441;SDS011;64346;50.820;16.274;2023-07-28T06:11:02;1.55;;;1.20;;
36441;SDS011;64346;50.820;16.274;2023-07-28T06:13:31;13.32;;;7.22;;
36441;SDS011;64346;50.820;16.274;2023-07-28T06:16:03;0.70;;;0.70;;
36441;SDS011;64346;50.820;16.274;2023-07-28T06:18:30;1.45;;;0.98;;
36441;SDS011;64346;50.820;16.274;2023-07-28T06:20:57;0.95;;;0.90;;
36441;SDS011;64346;50.820;16.274;2023-07-28T06:23:27;0.50;;;0.50;;
36441;SDS011;64346;50.820;16.274;2023-07-28T06:25:54;0.75;;;0.68;;
36441;SDS011;64346;50.820;16.274;2023-07-28T06:28:22;1.20;;;0.70;;
36441;SDS011;64346;50.820;16.274;2023-07-28T06:30:58;0.85;;;0.85;;
36441;SDS011;64346;50.820;16.274;2023-07-28T06:33:27;1.20;;;0.90;;
36441;SDS011;64346;50.820;16.274;2023-07-28T06:35:55;7.18;;;3.78;;
36441;SDS011;64346;50.820;16.274;2023-07-28T06:38:22;11.65;;;6.75;;
36441;SDS011;64346;50.820;16.274;2023-07-28T06:40:49;3.72;;;1.83;;
36441;SDS011;64346;50.820;16.274;2023-07-28T06:43:19;1.50;;;1.17;;
36441;SDS011;64346;50.820;16.274;2023-07-28T06:45:47;2.13;;;1.20;;
36441;SDS011;64346;50.820;16.274;2023-07-28T06:48:18;1.75;;;1.50;;
36441;SDS011;64346;50.820;16.274;2023-07-28T06:50:45;2.55;;;1.27;;
36441;SDS011;64346;50.820;16.274;2023-07-28T06:53:12;1.75;;;1.40;;
36441;SDS011;64346;50.820;16.274;2023-07-28T06:55:42;2.72;;;1.40;;
36441;SDS011;64346;50.820;16.274;2023-07-28T06:58:12;2.15;;;1.60;;
36441;SDS011;64346;50.820;16.274;2023-07-28T07:00:41;1.13;;;1.10;;
36441;SDS011;64346;50.820;16.274;2023-07-28T07:03:09;1.95;;;1.40;;
36441;SDS011;64346;50.820;16.274;2023-07-28T07:05:37;1.20;;;1.10;;
36441;SDS011;64346;50.820;16.274;2023-07-28T07:08:07;1.13;;;1.00;;
36441;SDS011;64346;50.820;16.274;2023-07-28T07:10:34;2.10;;;1.50;;
36441;SDS011;64346;50.820;16.274;2023-07-28T07:13:02;2.95;;;1.58;;
36441;SDS011;64346;50.820;16.274;2023-07-28T07:15:29;1.23;;;1.10;;
36441;SDS011;64346;50.820;16.274;2023-07-28T07:17:58;1.73;;;1.17;;
36441;SDS011;64346;50.820;16.274;2023-07-28T07:20:26;1.20;;;0.80;;
36441;SDS011;64346;50.820;16.274;2023-07-28T07:22:53;1.17;;;1.00;;
36441;SDS011;64346;50.820;16.274;2023-07-28T07:25:23;1.13;;;0.85;;
36441;SDS011;64346;50.820;16.274;2023-07-28T07:27:51;0.80;;;0.80;;
36441;SDS011;64346;50.820;16.274;2023-07-28T07:30:18;2.72;;;2.00;;
36441;SDS011;64346;50.820;16.274;2023-07-28T07:32:45;1.27;;;1.15;;
36441;SDS011;64346;50.820;16.274;2023-07-28T07:35:15;2.30;;;1.30;;
36441;SDS011;64346;50.820;16.274;2023-07-28T07:37:42;1.83;;;1.10;;
36441;SDS011;64346;50.820;16.274;2023-07-28T07:40:10;1.35;;;1.20;;
36441;SDS011;64346;50.820;16.274;2023-07-28T07:42:42;1.65;;;1.20;;
36441;SDS011;64346;50.820;16.274;2023-07-28T07:45:12;1.35;;;1.10;;
36441;SDS011;64346;50.820;16.274;2023-07-28T07:47:42;3.95;;;1.77;;
36441;SDS011;64346;50.820;16.274;2023-07-28T07:50:10;2.22;;;1.73;;
36441;SDS011;64346;50.820;16.274;2023-07-28T07:52:40;2.38;;;1.52;;
36441;SDS011;64346;50.820;16.274;2023-07-28T07:55:08;1.58;;;1.40;;
36441;SDS011;64346;50.820;16.274;2023-07-28T07:57:36;2.22;;;1.50;;
36441;SDS011;64346;50.820;16.274;2023-07-28T08:00:04;3.90;;;1.48;;
36441;SDS011;64346;50.820;16.274;2023-07-28T08:02:32;3.90;;;2.10;;
36441;SDS011;64346;50.820;16.274;2023-07-28T08:05:01;3.00;;;1.98;;
36441;SDS011;64346;50.820;16.274;2023-07-28T08:07:28;2.65;;;1.98;;
36441;SDS011;64346;50.820;16.274;2023-07-28T08:09:58;2.47;;;2.05;;
36441;SDS011;64346;50.820;16.274;2023-07-28T08:12:25;3.35;;;2.28;;
36441;SDS011;64346;50.820;16.274;2023-07-28T08:14:53;4.13;;;2.33;;
36441;SDS011;64346;50.820;16.274;2023-07-28T08:17:25;3.28;;;2.10;;
36441;SDS011;64346;50.820;16.274;2023-07-28T08:19:52;3.97;;;2.50;;
36441;SDS011;64346;50.820;16.274;2023-07-28T08:22:19;3.50;;;2.53;;
36441;SDS011;64346;50.820;16.274;2023-07-28T08:24:46;3.53;;;2.67;;
36441;SDS011;64346;50.820;16.274;2023-07-28T08:27:16;3.03;;;2.33;;
36441;SDS011;64346;50.820;16.274;2023-07-28T08:29:43;3.88;;;2.55;;
36441;SDS011;64346;50.820;16.274;2023-07-28T08:32:13;4.32;;;2.63;;
36441;SDS011;64346;50.820;16.274;2023-07-28T08:34:42;4.57;;;2.20;;
36441;SDS011;64346;50.820;16.274;2023-07-28T08:37:10;1.80;;;1.70;;
36441;SDS011;64346;50.820;16.274;2023-07-28T08:39:37;2.17;;;1.70;;
36441;SDS011;64346;50.820;16.274;2023-07-28T08:42:07;2.28;;;1.70;;
36441;SDS011;64346;50.820;16.274;2023-07-28T08:44:34;2.10;;;1.48;;
36441;SDS011;64346;50.820;16.274;2023-07-28T08:47:04;2.30;;;1.70;;
36441;SDS011;64346;50.820;16.274;2023-07-28T08:49:32;5.32;;;2.45;;
36441;SDS011;64346;50.820;16.274;2023-07-28T08:52:03;2.88;;;2.38;;
36441;SDS011;64346;50.820;16.274;2023-07-28T08:54:30;1.85;;;1.60;;
36441;SDS011;64346;50.820;16.274;2023-07-28T08:56:58;2.45;;;1.83;;
36441;SDS011;64346;50.820;16.274;2023-07-28T08:59:30;2.05;;;1.60;;
36441;SDS011;64346;50.820;16.274;2023-07-28T09:01:58;2.10;;;1.67;;
36441;SDS011;64346;50.820;16.274;2023-07-28T09:04:27;2.58;;;1.95;;
36441;SDS011;64346;50.820;16.274;2023-07-28T09:06:54;2.38;;;1.70;;
36441;SDS011;64346;50.820;16.274;2023-07-28T09:09:22;3.03;;;1.73;;
36441;SDS011;64346;50.820;16.274;2023-07-28T09:11:50;4.22;;;2.30;;
36441;SDS011;64346;50.820;16.274;2023-07-28T09:14:19;2.38;;;1.85;;
36441;SDS011;64346;50.820;16.274;2023-07-28T09:16:47;3.25;;;1.92;;
36441;SDS011;64346;50.820;16.274;2023-07-28T09:19:17;3.45;;;2.00;;
36441;SDS011;64346;50.820;16.274;2023-07-28T09:21:56;1.83;;;1.52;;
36441;SDS011;64346;50.820;16.274;2023-07-28T09:24:33;1.73;;;1.63;;
36441;SDS011;64346;50.820;16.274;2023-07-28T09:27:01;2.20;;;1.70;;
36441;SDS011;64346;50.820;16.274;2023-07-28T09:29:29;5.45;;;3.53;;
36441;SDS011;64346;50.820;16.274;2023-07-28T09:32:03;3.63;;;2.72;;
36441;SDS011;64346;50.820;16.274;2023-07-28T09:34:32;4.57;;;2.67;;
36441;SDS011;64346;50.820;16.274;2023-07-28T09:36:59;2.35;;;1.80;;
36441;SDS011;64346;50.820;16.274;2023-07-28T09:39:27;3.15;;;1.88;;
36441;SDS011;64346;50.820;16.274;2023-07-28T09:41:57;3.53;;;1.98;;
36441;SDS011;64346;50.820;16.274;2023-07-28T09:44:27;2.60;;;1.98;;
36441;SDS011;64346;50.820;16.274;2023-07-28T09:46:55;2.13;;;1.75;;
36441;SDS011;64346;50.820;16.274;2023-07-28T09:52:08;3.10;;;1.83;;
36441;SDS011;64346;50.820;16.274;2023-07-28T09:54:40;3.38;;;1.88;;
36441;SDS011;64346;50.820;16.274;2023-07-28T09:57:12;2.55;;;1.60;;
36441;SDS011;64346;50.820;16.274;2023-07-28T09:59:46;1.80;;;1.58;;
36441;SDS011;64346;50.820;16.274;2023-07-28T10:02:19;4.15;;;2.55;;
36441;SDS011;64346;50.820;16.274;2023-07-28T10:04:46;3.05;;;1.65;;
36441;SDS011;64346;50.820;16.274;2023-07-28T10:07:16;2.35;;;1.70;;
36441;SDS011;64346;50.820;16.274;2023-07-28T10:09:44;10.57;;;3.13;;
36441;SDS011;64346;50.820;16.274;2023-07-28T10:12:18;2.50;;;2.10;;
36441;SDS011;64346;50.820;16.274;2023-07-28T10:14:46;3.28;;;2.35;;
36441;SDS011;64346;50.820;16.274;2023-07-28T10:17:16;3.88;;;1.83;;
36441;SDS011;64346;50.820;16.274;2023-07-28T10:19:45;3.47;;;2.10;;
36441;SDS011;64346;50.820;16.274;2023-07-28T10:22:13;2.20;;;1.58;;
36441;SDS011;64346;50.820;16.274;2023-07-28T10:24:55;1.70;;;1.35;;
36441;SDS011;64346;50.820;16.274;2023-07-28T10:27:36;2.20;;;1.40;;
36441;SDS011;64346;50.820;16.274;2023-07-28T10:30:11;3.45;;;1.70;;
36441;SDS011;64346;50.820;16.274;2023-07-28T10:32:41;2.00;;;1.50;;
36441;SDS011;64346;50.820;16.274;2023-07-28T10:37:43;2.75;;;1.80;;
36441;SDS011;64346;50.820;16.274;2023-07-28T10:40:27;3.00;;;1.77;;
36441;SDS011;64346;50.820;16.274;2023-07-28T10:42:55;4.53;;;2.10;;
36441;SDS011;64346;50.820;16.274;2023-07-28T10:45:24;4.10;;;1.88;;
36441;SDS011;64346;50.820;16.274;2023-07-28T10:47:53;2.88;;;1.90;;
36441;SDS011;64346;50.820;16.274;2023-07-28T10:50:21;3.47;;;1.90;;
36441;SDS011;64346;50.820;16.274;2023-07-28T10:52:49;4.55;;;2.00;;
36441;SDS011;64346;50.820;16.274;2023-07-28T10:55:18;4.22;;;2.00;;
36441;SDS011;64346;50.820;16.274;2023-07-28T10:57:49;4.07;;;2.80;;
36441;SDS011;64346;50.820;16.274;2023-07-28T11:00:18;9.27;;;5.57;;
36441;SDS011;64346;50.820;16.274;2023-07-28T11:02:50;4.22;;;2.60;;
36441;SDS011;64346;50.820;16.274;2023-07-28T11:05:21;4.00;;;2.10;;
36441;SDS011;64346;50.820;16.274;2023-07-28T11:08:00;3.47;;;1.92;;
36441;SDS011;64346;50.820;16.274;2023-07-28T11:10:32;2.53;;;1.73;;
36441;SDS011;64346;50.820;16.274;2023-07-28T11:13:02;3.10;;;1.95;;
36441;SDS011;64346;50.820;16.274;2023-07-28T11:15:52;2.33;;;1.88;;
36441;SDS011;64346;50.820;16.274;2023-07-28T11:18:19;1.70;;;1.60;;
36441;SDS011;64346;50.820;16.274;2023-07-28T11:20:47;6.40;;;2.45;;
36441;SDS011;64346;50.820;16.274;2023-07-28T11:23:14;4.70;;;2.45;;
36441;SDS011;64346;50.820;16.274;2023-07-28T11:25:42;5.30;;;2.53;;
36441;SDS011;64346;50.820;16.274;2023-07-28T11:28:11;2.67;;;2.10;;
36441;SDS011;64346;50.820;16.274;2023-07-28T11:30:42;3.65;;;1.70;;
36441;SDS011;64346;50.820;16.274;2023-07-28T11:33:10;4.03;;;2.10;;
36441;SDS011;64346;50.820;16.274;2023-07-28T11:35:37;3.17;;;1.83;;
36441;SDS011;64346;50.820;16.274;2023-07-28T11:38:05;2.83;;;2.00;;
36441;SDS011;64346;50.820;16.274;2023-07-28T11:40:36;3.00;;;1.75;;
36441;SDS011;64346;50.820;16.274;2023-07-28T11:43:04;7.35;;;2.53;;
36441;SDS011;64346;50.820;16.274;2023-07-28T11:45:32;4.50;;;2.60;;
36441;SDS011;64346;50.820;16.274;2023-07-28T11:48:05;3.60;;;2.15;;
36441;SDS011;64346;50.820;16.274;2023-07-28T11:50:34;7.25;;;2.60;;
36441;SDS011;64346;50.820;16.274;2023-07-28T11:53:08;5.53;;;2.85;;
36441;SDS011;64346;50.820;16.274;2023-07-28T11:55:36;4.80;;;2.00;;
36441;SDS011;64346;50.820;16.274;2023-07-28T11:58:07;6.72;;;2.90;;
36441;SDS011;64346;50.820;16.274;2023-07-28T12:00:35;4.28;;;2.20;;
36441;SDS011;64346;50.820;16.274;2023-07-28T12:03:05;4.85;;;2.30;;
36441;SDS011;64346;50.820;16.274;2023-07-28T12:05:35;4.10;;;2.47;;
36441;SDS011;64346;50.820;16.274;2023-07-28T12:08:09;5.70;;;2.60;;
36441;SDS011;64346;50.820;16.274;2023-07-28T12:10:49;3.20;;;2.17;;
36441;SDS011;64346;50.820;16.274;2023-07-28T12:13:24;9.02;;;3.90;;
36441;SDS011;64346;50.820;16.274;2023-07-28T12:15:54;4.70;;;2.67;;
36441;SDS011;64346;50.820;16.274;2023-07-28T12:18:29;2.97;;;2.30;;
36441;SDS011;64346;50.820;16.274;2023-07-28T12:20:59;6.18;;;2.22;;
36441;SDS011;64346;50.820;16.274;2023-07-28T12:23:27;6.15;;;3.80;;
36441;SDS011;64346;50.820;16.274;2023-07-28T12:25:57;4.22;;;2.25;;
36441;SDS011;64346;50.820;16.274;2023-07-28T12:28:27;3.55;;;1.95;;
36441;SDS011;64346;50.820;16.274;2023-07-28T12:31:09;2.78;;;2.10;;
36441;SDS011;64346;50.820;16.274;2023-07-28T12:33:36;3.80;;;1.83;;
36441;SDS011;64346;50.820;16.274;2023-07-28T12:36:05;6.82;;;2.65;;
36441;SDS011;64346;50.820;16.274;2023-07-28T12:38:35;3.38;;;2.08;;
36441;SDS011;64346;50.820;16.274;2023-07-28T12:41:06;3.55;;;2.13;;
36441;SDS011;64346;50.820;16.274;2023-07-28T12:43:36;6.10;;;2.08;;
36441;SDS011;64346;50.820;16.274;2023-07-28T12:46:06;3.20;;;1.90;;
36441;SDS011;64346;50.820;16.274;2023-07-28T12:48:36;5.32;;;2.70;;
36441;SDS011;64346;50.820;16.274;2023-07-28T12:51:14;4.05;;;2.00;;
36441;SDS011;64346;50.820;16.274;2023-07-28T12:56:32;6.35;;;3.15;;
36441;SDS011;64346;50.820;16.274;2023-07-28T12:59:02;10.85;;;6.25;;
36441;SDS011;64346;50.820;16.274;2023-07-28T13:01:36;5.25;;;2.30;;
36441;SDS011;64346;50.820;16.274;2023-07-28T13:04:04;3.53;;;2.27;;
36441;SDS011;64346;50.820;16.274;2023-07-28T13:06:34;2.90;;;2.10;;
36441;SDS011;64346;50.820;16.274;2023-07-28T13:09:01;2.70;;;1.90;;
36441;SDS011;64346;50.820;16.274;2023-07-28T13:11:31;2.70;;;1.88;;
36441;SDS011;64346;50.820;16.274;2023-07-28T13:14:05;2.40;;;2.00;;
36441;SDS011;64346;50.820;16.274;2023-07-28T13:16:32;2.53;;;2.03;;
36441;SDS011;64346;50.820;16.274;2023-07-28T13:19:00;3.15;;;2.35;;
36441;SDS011;64346;50.820;16.274;2023-07-28T13:21:28;3.42;;;2.03;;
36441;SDS011;64346;50.820;16.274;2023-07-28T13:23:58;3.17;;;1.70;;
36441;SDS011;64346;50.820;16.274;2023-07-28T13:26:25;2.45;;;1.90;;
36441;SDS011;64346;50.820;16.274;2023-07-28T13:28:53;4.22;;;2.20;;
36441;SDS011;64346;50.820;16.274;2023-07-28T13:31:22;2.65;;;2.00;;
36441;SDS011;64346;50.820;16.274;2023-07-28T13:33:50;3.15;;;2.20;;
36441;SDS011;64346;50.820;16.274;2023-07-28T13:36:17;3.17;;;2.20;;
36441;SDS011;64346;50.820;16.274;2023-07-28T13:38:45;3.90;;;2.38;;
36441;SDS011;64346;50.820;16.274;2023-07-28T13:41:12;3.83;;;1.90;;
36441;SDS011;64346;50.820;16.274;2023-07-28T13:43:39;3.58;;;1.92;;
36441;SDS011;64346;50.820;16.274;2023-07-28T13:46:06;2.88;;;1.90;;
36441;SDS011;64346;50.820;16.274;2023-07-28T13:48:37;2.78;;;2.00;;
36441;SDS011;64346;50.820;16.274;2023-07-28T13:51:09;2.33;;;1.75;;
36441;SDS011;64346;50.820;16.274;2023-07-28T13:53:45;3.25;;;1.80;;
36441;SDS011;64346;50.820;16.274;2023-07-28T13:56:32;18.05;;;4.25;;
36441;SDS011;64346;50.820;16.274;2023-07-28T13:59:00;3.60;;;1.92;;
36441;SDS011;64346;50.820;16.274;2023-07-28T14:01:27;3.53;;;2.15;;
36441;SDS011;64346;50.820;16.274;2023-07-28T14:03:55;4.82;;;2.17;;
36441;SDS011;64346;50.820;16.274;2023-07-28T14:06:22;4.22;;;2.20;;
36441;SDS011;64346;50.820;16.274;2023-07-28T14:08:51;4.80;;;2.17;;
36441;SDS011;64346;50.820;16.274;2023-07-28T14:11:21;4.22;;;2.10;;
36441;SDS011;64346;50.820;16.274;2023-07-28T14:13:50;2.35;;;1.70;;
36441;SDS011;64346;50.820;16.274;2023-07-28T14:16:20;2.85;;;1.90;;
36441;SDS011;64346;50.820;16.274;2023-07-28T14:18:47;3.15;;;1.55;;
36441;SDS011;64346;50.820;16.274;2023-07-28T14:21:17;2.45;;;1.60;;
36441;SDS011;64346;50.820;16.274;2023-07-28T14:23:49;2.80;;;1.90;;
36441;SDS011;64346;50.820;16.274;2023-07-28T14:26:16;2.92;;;1.83;;
36441;SDS011;64346;50.820;16.274;2023-07-28T14:28:46;2.85;;;1.75;;
36441;SDS011;64346;50.820;16.274;2023-07-28T14:31:13;2.95;;;1.50;;
36441;SDS011;64346;50.820;16.274;2023-07-28T14:33:41;3.70;;;2.90;;
36441;SDS011;64346;50.820;16.274;2023-07-28T14:36:08;3.95;;;2.22;;
36441;SDS011;64346;50.820;16.274;2023-07-28T14:38:35;3.45;;;1.85;;
36441;SDS011;64346;50.820;16.274;2023-07-28T14:41:05;4.68;;;2.63;;
36441;SDS011;64346;50.820;16.274;2023-07-28T14:43:35;4.07;;;2.40;;
36441;SDS011;64346;50.820;16.274;2023-07-28T14:46:04;2.72;;;1.35;;
36441;SDS011;64346;50.820;16.274;2023-07-28T14:48:34;2.67;;;1.58;;
36441;SDS011;64346;50.820;16.274;2023-07-28T14:51:01;2.50;;;1.70;;
36441;SDS011;64346;50.820;16.274;2023-07-28T14:53:34;7.13;;;4.22;;